sensor_id;sensor_type;location;lat;lon;timestamp;temperature;humidity
52869;DHT22;39100;53.480;6.158;2022-08-21T00:02:15;16.30;99.90
52869;DHT22;39100;53.480;6.158;2022-08-21T00:04:41;16.40;99.90
52869;DHT22;39100;53.480;6.158;2022-08-21T00:07:07;16.30;99.90
52869;DHT22;39100;53.480;6.158;2022-08-21T00:09:32;16.30;99.90
52869;DHT22;39100;53.480;6.158;2022-08-21T00:11:58;16.30;99.90
52869;DHT22;39100;53.480;6.158;2022-08-21T00:14:23;16.30;99.90
52869;DHT22;39100;53.480;6.158;2022-08-21T00:16:51;16.30;99.90
52869;DHT22;39100;53.480;6.158;2022-08-21T00:19:16;16.30;99.90
52869;DHT22;39100;53.480;6.158;2022-08-21T00:21:42;16.30;99.90
52869;DHT22;39100;53.480;6.158;2022-08-21T00:24:07;16.30;99.90
52869;DHT22;39100;53.480;6.158;2022-08-21T00:26:34;16.30;99.90
52869;DHT22;39100;53.480;6.158;2022-08-21T00:28:59;16.20;99.90
52869;DHT22;39100;53.480;6.158;2022-08-21T00:31:25;16.20;99.90
52869;DHT22;39100;53.480;6.158;2022-08-21T00:33:51;16.20;99.90
52869;DHT22;39100;53.480;6.158;2022-08-21T00:36:17;16.20;99.90
52869;DHT22;39100;53.480;6.158;2022-08-21T00:38:42;16.20;99.90
52869;DHT22;39100;53.480;6.158;2022-08-21T00:41:09;16.20;99.90
52869;DHT22;39100;53.480;6.158;2022-08-21T00:43:37;16.20;99.90
52869;DHT22;39100;53.480;6.158;2022-08-21T00:46:04;16.20;99.90
52869;DHT22;39100;53.480;6.158;2022-08-21T00:48:30;16.20;99.90
52869;DHT22;39100;53.480;6.158;2022-08-21T00:51:12;16.20;99.90
52869;DHT22;39100;53.480;6.158;2022-08-21T00:53:42;16.10;99.90
52869;DHT22;39100;53.480;6.158;2022-08-21T00:56:10;16.20;99.90
52869;DHT22;39100;53.480;6.158;2022-08-21T00:58:37;16.20;99.90
52869;DHT22;39100;53.480;6.158;2022-08-21T01:01:05;16.10;99.90
52869;DHT22;39100;53.480;6.158;2022-08-21T01:03:32;16.20;99.90
52869;DHT22;39100;53.480;6.158;2022-08-21T01:05:57;16.20;99.90
52869;DHT22;39100;53.480;6.158;2022-08-21T01:08:23;16.10;99.90
52869;DHT22;39100;53.480;6.158;2022-08-21T01:10:50;16.20;99.90
52869;DHT22;39100;53.480;6.158;2022-08-21T01:13:18;16.20;99.90
52869;DHT22;39100;53.480;6.158;2022-08-21T01:15:46;16.10;99.90
52869;DHT22;39100;53.480;6.158;2022-08-21T01:18:15;16.20;99.90
52869;DHT22;39100;53.480;6.158;2022-08-21T01:21:12;16.20;99.90
52869;DHT22;39100;53.480;6.158;2022-08-21T01:23:39;16.20;99.90
52869;DHT22;39100;53.480;6.158;2022-08-21T01:26:07;16.20;99.90
52869;DHT22;39100;53.480;6.158;2022-08-21T01:28:38;16.20;99.90
52869;DHT22;39100;53.480;6.158;2022-08-21T01:31:06;16.20;99.90
52869;DHT22;39100;53.480;6.158;2022-08-21T01:33:33;16.20;99.90
52869;DHT22;39100;53.480;6.158;2022-08-21T01:35:59;16.20;99.90
52869;DHT22;39100;53.480;6.158;2022-08-21T01:38:25;16.20;99.90
52869;DHT22;39100;53.480;6.158;2022-08-21T01:40:51;16.20;99.90
52869;DHT22;39100;53.480;6.158;2022-08-21T01:43:16;16.30;99.90
52869;DHT22;39100;53.480;6.158;2022-08-21T01:45:42;16.40;99.90
52869;DHT22;39100;53.480;6.158;2022-08-21T01:48:07;16.30;99.90
52869;DHT22;39100;53.480;6.158;2022-08-21T01:50:33;16.30;99.90
52869;DHT22;39100;53.480;6.158;2022-08-21T01:52:59;16.30;99.90
52869;DHT22;39100;53.480;6.158;2022-08-21T01:55:25;16.30;99.90
52869;DHT22;39100;53.480;6.158;2022-08-21T01:57:51;16.30;99.90
52869;DHT22;39100;53.480;6.158;2022-08-21T02:00:19;16.30;99.90
52869;DHT22;39100;53.480;6.158;2022-08-21T02:02:45;16.30;99.90
52869;DHT22;39100;53.480;6.158;2022-08-21T02:05:12;16.30;99.90
52869;DHT22;39100;53.480;6.158;2022-08-21T02:07:42;16.30;99.90
52869;DHT22;39100;53.480;6.158;2022-08-21T02:10:10;16.30;99.90
52869;DHT22;39100;53.480;6.158;2022-08-21T02:12:36;16.30;99.90
52869;DHT22;39100;53.480;6.158;2022-08-21T02:15:06;16.30;99.90
52869;DHT22;39100;53.480;6.158;2022-08-21T02:20:05;16.30;99.90
52869;DHT22;39100;53.480;6.158;2022-08-21T02:22:31;16.30;99.90
52869;DHT22;39100;53.480;6.158;2022-08-21T02:24:57;16.20;99.90
52869;DHT22;39100;53.480;6.158;2022-08-21T02:27:23;16.20;99.90
52869;DHT22;39100;53.480;6.158;2022-08-21T02:29:49;16.20;99.90
52869;DHT22;39100;53.480;6.158;2022-08-21T02:32:15;16.20;99.90
52869;DHT22;39100;53.480;6.158;2022-08-21T02:34:40;16.20;99.90
52869;DHT22;39100;53.480;6.158;2022-08-21T02:37:06;16.20;99.90
52869;DHT22;39100;53.480;6.158;2022-08-21T02:39:31;16.20;99.90
52869;DHT22;39100;53.480;6.158;2022-08-21T02:41:57;16.20;99.90
52869;DHT22;39100;53.480;6.158;2022-08-21T02:44:22;16.20;99.90
52869;DHT22;39100;53.480;6.158;2022-08-21T02:46:48;16.20;99.90
52869;DHT22;39100;53.480;6.158;2022-08-21T02:49:14;16.20;99.90
52869;DHT22;39100;53.480;6.158;2022-08-21T02:51:39;16.10;99.90
52869;DHT22;39100;53.480;6.158;2022-08-21T02:54:05;16.10;99.90
52869;DHT22;39100;53.480;6.158;2022-08-21T02:56:31;16.10;99.90
52869;DHT22;39100;53.480;6.158;2022-08-21T02:58:57;16.10;99.90
52869;DHT22;39100;53.480;6.158;2022-08-21T03:01:22;16.20;99.90
52869;DHT22;39100;53.480;6.158;2022-08-21T03:03:48;16.10;99.90
52869;DHT22;39100;53.480;6.158;2022-08-21T03:06:15;16.10;99.90
52869;DHT22;39100;53.480;6.158;2022-08-21T03:08:41;16.10;99.90
52869;DHT22;39100;53.480;6.158;2022-08-21T03:11:08;16.10;99.90
52869;DHT22;39100;53.480;6.158;2022-08-21T03:13:34;16.10;99.90
52869;DHT22;39100;53.480;6.158;2022-08-21T03:15:59;16.10;99.90
52869;DHT22;39100;53.480;6.158;2022-08-21T03:18:25;16.10;99.90
52869;DHT22;39100;53.480;6.158;2022-08-21T03:20:51;16.10;99.90
52869;DHT22;39100;53.480;6.158;2022-08-21T03:23:17;16.00;99.90
52869;DHT22;39100;53.480;6.158;2022-08-21T03:25:43;16.10;99.90
52869;DHT22;39100;53.480;6.158;2022-08-21T03:28:12;16.10;99.90
52869;DHT22;39100;53.480;6.158;2022-08-21T03:30:39;16.10;99.90
52869;DHT22;39100;53.480;6.158;2022-08-21T03:33:05;16.00;99.90
52869;DHT22;39100;53.480;6.158;2022-08-21T03:35:30;16.10;99.90
52869;DHT22;39100;53.480;6.158;2022-08-21T03:37:56;16.00;99.90
52869;DHT22;39100;53.480;6.158;2022-08-21T03:40:22;16.00;99.90
52869;DHT22;39100;53.480;6.158;2022-08-21T03:42:49;16.10;99.90
52869;DHT22;39100;53.480;6.158;2022-08-21T03:45:16;16.00;99.90
52869;DHT22;39100;53.480;6.158;2022-08-21T03:50:18;16.00;99.90
52869;DHT22;39100;53.480;6.158;2022-08-21T03:52:44;16.00;99.90
52869;DHT22;39100;53.480;6.158;2022-08-21T03:55:10;16.00;99.90
52869;DHT22;39100;53.480;6.158;2022-08-21T03:57:35;16.00;99.90
52869;DHT22;39100;53.480;6.158;2022-08-21T04:00:01;16.00;99.90
52869;DHT22;39100;53.480;6.158;2022-08-21T04:02:27;16.00;99.90
52869;DHT22;39100;53.480;6.158;2022-08-21T04:04:53;15.90;99.90
52869;DHT22;39100;53.480;6.158;2022-08-21T04:07:18;15.90;99.90
52869;DHT22;39100;53.480;6.158;2022-08-21T04:09:44;15.90;99.90
52869;DHT22;39100;53.480;6.158;2022-08-21T04:12:10;15.90;99.90
52869;DHT22;39100;53.480;6.158;2022-08-21T04:14:35;15.90;99.90
52869;DHT22;39100;53.480;6.158;2022-08-21T04:17:01;15.90;99.90
52869;DHT22;39100;53.480;6.158;2022-08-21T04:19:26;15.90;99.90
52869;DHT22;39100;53.480;6.158;2022-08-21T04:21:52;16.30;99.90
52869;DHT22;39100;53.480;6.158;2022-08-21T04:24:17;15.80;99.90
52869;DHT22;39100;53.480;6.158;2022-08-21T04:26:44;15.80;99.90
52869;DHT22;39100;53.480;6.158;2022-08-21T04:29:10;15.80;99.90
52869;DHT22;39100;53.480;6.158;2022-08-21T04:31:36;15.80;99.90
52869;DHT22;39100;53.480;6.158;2022-08-21T04:34:03;15.80;99.90
52869;DHT22;39100;53.480;6.158;2022-08-21T04:36:30;15.80;99.90
52869;DHT22;39100;53.480;6.158;2022-08-21T04:38:56;15.80;99.90
52869;DHT22;39100;53.480;6.158;2022-08-21T04:41:22;15.80;99.90
52869;DHT22;39100;53.480;6.158;2022-08-21T04:43:47;15.80;99.90
52869;DHT22;39100;53.480;6.158;2022-08-21T04:46:13;15.80;99.90
52869;DHT22;39100;53.480;6.158;2022-08-21T04:48:38;15.80;99.90
52869;DHT22;39100;53.480;6.158;2022-08-21T04:51:20;15.90;99.90
52869;DHT22;39100;53.480;6.158;2022-08-21T04:53:59;15.80;99.90
52869;DHT22;39100;53.480;6.158;2022-08-21T04:56:35;15.80;99.90
52869;DHT22;39100;53.480;6.158;2022-08-21T04:59:06;15.90;99.90
52869;DHT22;39100;53.480;6.158;2022-08-21T05:01:34;15.90;99.90
52869;DHT22;39100;53.480;6.158;2022-08-21T05:04:03;15.90;99.90
52869;DHT22;39100;53.480;6.158;2022-08-21T05:06:34;16.00;99.90
52869;DHT22;39100;53.480;6.158;2022-08-21T05:09:00;16.00;99.90
52869;DHT22;39100;53.480;6.158;2022-08-21T05:11:27;16.10;99.90
52869;DHT22;39100;53.480;6.158;2022-08-21T05:13:53;16.10;99.90
52869;DHT22;39100;53.480;6.158;2022-08-21T05:16:18;16.20;99.90
52869;DHT22;39100;53.480;6.158;2022-08-21T05:18:44;16.30;99.90
52869;DHT22;39100;53.480;6.158;2022-08-21T05:21:10;16.30;99.90
52869;DHT22;39100;53.480;6.158;2022-08-21T05:23:36;16.40;99.90
52869;DHT22;39100;53.480;6.158;2022-08-21T05:26:02;16.50;99.90
52869;DHT22;39100;53.480;6.158;2022-08-21T05:28:29;16.60;99.90
52869;DHT22;39100;53.480;6.158;2022-08-21T05:30:55;16.60;99.90
52869;DHT22;39100;53.480;6.158;2022-08-21T05:33:21;16.70;99.90
52869;DHT22;39100;53.480;6.158;2022-08-21T05:35:50;16.70;99.90
52869;DHT22;39100;53.480;6.158;2022-08-21T05:38:16;16.70;99.90
52869;DHT22;39100;53.480;6.158;2022-08-21T05:40:42;16.70;99.90
52869;DHT22;39100;53.480;6.158;2022-08-21T05:43:08;16.60;99.90
52869;DHT22;39100;53.480;6.158;2022-08-21T05:45:34;16.60;99.90
52869;DHT22;39100;53.480;6.158;2022-08-21T05:48:24;16.60;99.90
52869;DHT22;39100;53.480;6.158;2022-08-21T05:50:51;16.60;99.90
52869;DHT22;39100;53.480;6.158;2022-08-21T05:53:18;16.60;99.90
52869;DHT22;39100;53.480;6.158;2022-08-21T05:55:45;16.60;99.90
52869;DHT22;39100;53.480;6.158;2022-08-21T05:58:11;16.70;99.90
52869;DHT22;39100;53.480;6.158;2022-08-21T06:00:37;16.70;99.90
52869;DHT22;39100;53.480;6.158;2022-08-21T06:03:02;16.80;99.90
52869;DHT22;39100;53.480;6.158;2022-08-21T06:05:28;16.80;99.90
52869;DHT22;39100;53.480;6.158;2022-08-21T06:07:54;16.90;99.90
52869;DHT22;39100;53.480;6.158;2022-08-21T06:10:20;16.90;99.90
52869;DHT22;39100;53.480;6.158;2022-08-21T06:12:46;16.90;99.90
52869;DHT22;39100;53.480;6.158;2022-08-21T06:15:11;17.10;99.90
52869;DHT22;39100;53.480;6.158;2022-08-21T06:17:37;17.20;99.90
52869;DHT22;39100;53.480;6.158;2022-08-21T06:20:03;17.40;99.90
52869;DHT22;39100;53.480;6.158;2022-08-21T06:22:29;17.60;99.90
52869;DHT22;39100;53.480;6.158;2022-08-21T06:24:55;17.80;99.90
52869;DHT22;39100;53.480;6.158;2022-08-21T06:27:20;18.10;99.90
52869;DHT22;39100;53.480;6.158;2022-08-21T06:29:46;18.60;99.90
52869;DHT22;39100;53.480;6.158;2022-08-21T06:32:12;18.40;99.90
52869;DHT22;39100;53.480;6.158;2022-08-21T06:34:40;18.60;99.90
52869;DHT22;39100;53.480;6.158;2022-08-21T06:37:06;18.70;99.90
52869;DHT22;39100;53.480;6.158;2022-08-21T06:39:32;18.90;99.90
52869;DHT22;39100;53.480;6.158;2022-08-21T06:41:58;19.00;99.90
52869;DHT22;39100;53.480;6.158;2022-08-21T06:44:25;19.20;99.90
52869;DHT22;39100;53.480;6.158;2022-08-21T06:46:50;19.30;99.90
52869;DHT22;39100;53.480;6.158;2022-08-21T06:49:16;19.50;99.90
52869;DHT22;39100;53.480;6.158;2022-08-21T06:51:42;19.60;99.90
52869;DHT22;39100;53.480;6.158;2022-08-21T06:54:07;19.80;99.90
52869;DHT22;39100;53.480;6.158;2022-08-21T06:56:34;20.00;99.90
52869;DHT22;39100;53.480;6.158;2022-08-21T06:59:02;20.10;99.90
52869;DHT22;39100;53.480;6.158;2022-08-21T07:01:28;20.30;99.90
52869;DHT22;39100;53.480;6.158;2022-08-21T07:03:54;20.50;99.90
52869;DHT22;39100;53.480;6.158;2022-08-21T07:06:20;20.60;99.90
52869;DHT22;39100;53.480;6.158;2022-08-21T07:08:45;20.70;99.90
52869;DHT22;39100;53.480;6.158;2022-08-21T07:11:17;20.80;99.90
52869;DHT22;39100;53.480;6.158;2022-08-21T07:13:42;20.90;99.90
52869;DHT22;39100;53.480;6.158;2022-08-21T07:16:08;20.80;99.90
52869;DHT22;39100;53.480;6.158;2022-08-21T07:18:34;20.80;99.90
52869;DHT22;39100;53.480;6.158;2022-08-21T07:21:01;20.90;99.90
52869;DHT22;39100;53.480;6.158;2022-08-21T07:23:30;21.00;99.90
52869;DHT22;39100;53.480;6.158;2022-08-21T07:25:57;21.00;99.90
52869;DHT22;39100;53.480;6.158;2022-08-21T07:28:24;21.20;99.90
52869;DHT22;39100;53.480;6.158;2022-08-21T07:30:52;21.30;99.90
52869;DHT22;39100;53.480;6.158;2022-08-21T07:33:18;21.50;99.90
52869;DHT22;39100;53.480;6.158;2022-08-21T07:35:43;21.60;99.90
52869;DHT22;39100;53.480;6.158;2022-08-21T07:38:09;21.70;99.90
52869;DHT22;39100;53.480;6.158;2022-08-21T07:40:35;21.80;99.90
52869;DHT22;39100;53.480;6.158;2022-08-21T07:43:00;21.90;99.90
52869;DHT22;39100;53.480;6.158;2022-08-21T07:45:26;22.00;99.90
52869;DHT22;39100;53.480;6.158;2022-08-21T07:47:52;22.20;99.90
52869;DHT22;39100;53.480;6.158;2022-08-21T07:50:18;22.30;99.90
52869;DHT22;39100;53.480;6.158;2022-08-21T07:52:44;22.60;99.90
52869;DHT22;39100;53.480;6.158;2022-08-21T07:55:12;23.20;99.90
52869;DHT22;39100;53.480;6.158;2022-08-21T07:57:39;22.80;99.90
52869;DHT22;39100;53.480;6.158;2022-08-21T08:00:10;22.80;99.90
52869;DHT22;39100;53.480;6.158;2022-08-21T08:02:35;23.10;99.90
52869;DHT22;39100;53.480;6.158;2022-08-21T08:05:04;23.20;99.90
52869;DHT22;39100;53.480;6.158;2022-08-21T08:07:30;23.60;99.90
52869;DHT22;39100;53.480;6.158;2022-08-21T08:09:55;23.70;99.90
52869;DHT22;39100;53.480;6.158;2022-08-21T08:12:21;23.80;99.90
52869;DHT22;39100;53.480;6.158;2022-08-21T08:14:47;24.00;99.90
52869;DHT22;39100;53.480;6.158;2022-08-21T08:17:12;24.20;99.90
52869;DHT22;39100;53.480;6.158;2022-08-21T08:19:41;24.30;99.90
52869;DHT22;39100;53.480;6.158;2022-08-21T08:22:14;24.40;99.90
52869;DHT22;39100;53.480;6.158;2022-08-21T08:24:40;24.20;99.90
52869;DHT22;39100;53.480;6.158;2022-08-21T08:27:05;24.10;99.90
52869;DHT22;39100;53.480;6.158;2022-08-21T08:29:31;24.00;99.90
52869;DHT22;39100;53.480;6.158;2022-08-21T08:31:56;23.90;99.90
52869;DHT22;39100;53.480;6.158;2022-08-21T08:34:23;24.00;99.90
52869;DHT22;39100;53.480;6.158;2022-08-21T08:36:48;24.10;99.90
52869;DHT22;39100;53.480;6.158;2022-08-21T08:39:14;24.40;99.90
52869;DHT22;39100;53.480;6.158;2022-08-21T08:41:41;24.60;99.90
52869;DHT22;39100;53.480;6.158;2022-08-21T08:44:08;24.80;99.90
52869;DHT22;39100;53.480;6.158;2022-08-21T08:46:47;24.90;99.90
52869;DHT22;39100;53.480;6.158;2022-08-21T08:49:29;24.80;99.90
52869;DHT22;39100;53.480;6.158;2022-08-21T08:54:47;25.00;99.90
52869;DHT22;39100;53.480;6.158;2022-08-21T08:57:17;25.40;99.90
52869;DHT22;39100;53.480;6.158;2022-08-21T08:59:49;25.40;99.90
52869;DHT22;39100;53.480;6.158;2022-08-21T09:02:16;25.40;99.90
52869;DHT22;39100;53.480;6.158;2022-08-21T09:04:44;25.40;99.90
52869;DHT22;39100;53.480;6.158;2022-08-21T09:10:17;24.50;99.90
52869;DHT22;39100;53.480;6.158;2022-08-21T09:15:34;23.60;99.90
52869;DHT22;39100;53.480;6.158;2022-08-21T09:24:02;22.40;99.90
52869;DHT22;39100;53.480;6.158;2022-08-21T09:29:22;22.00;99.90
52869;DHT22;39100;53.480;6.158;2022-08-21T09:31:49;21.80;99.90
52869;DHT22;39100;53.480;6.158;2022-08-21T09:34:27;21.70;99.90
52869;DHT22;39100;53.480;6.158;2022-08-21T09:36:54;21.70;99.90
52869;DHT22;39100;53.480;6.158;2022-08-21T09:39:30;21.90;99.90
52869;DHT22;39100;53.480;6.158;2022-08-21T09:41:58;22.10;99.90
52869;DHT22;39100;53.480;6.158;2022-08-21T09:44:29;22.40;99.90
52869;DHT22;39100;53.480;6.158;2022-08-21T09:46:56;22.70;99.90
52869;DHT22;39100;53.480;6.158;2022-08-21T09:49:35;22.70;99.90
52869;DHT22;39100;53.480;6.158;2022-08-21T09:52:03;22.70;99.90
52869;DHT22;39100;53.480;6.158;2022-08-21T09:54:32;22.60;99.90
52869;DHT22;39100;53.480;6.158;2022-08-21T09:57:23;22.70;99.90
52869;DHT22;39100;53.480;6.158;2022-08-21T10:00:28;23.00;99.90
52869;DHT22;39100;53.480;6.158;2022-08-21T10:05:34;23.70;99.90
52869;DHT22;39100;53.480;6.158;2022-08-21T10:08:00;24.00;99.90
52869;DHT22;39100;53.480;6.158;2022-08-21T10:10:30;24.00;99.90
52869;DHT22;39100;53.480;6.158;2022-08-21T10:18:39;23.90;99.90
52869;DHT22;39100;53.480;6.158;2022-08-21T10:21:35;23.70;99.90
52869;DHT22;39100;53.480;6.158;2022-08-21T10:24:32;23.60;99.90
52869;DHT22;39100;53.480;6.158;2022-08-21T10:32:26;23.80;99.90
52869;DHT22;39100;53.480;6.158;2022-08-21T10:40:34;24.40;99.90
52869;DHT22;39100;53.480;6.158;2022-08-21T10:43:24;24.20;99.90
52869;DHT22;39100;53.480;6.158;2022-08-21T10:46:08;24.40;99.90
52869;DHT22;39100;53.480;6.158;2022-08-21T10:48:50;24.70;99.90
52869;DHT22;39100;53.480;6.158;2022-08-21T10:51:39;24.90;99.90
52869;DHT22;39100;53.480;6.158;2022-08-21T10:54:16;25.10;99.90
52869;DHT22;39100;53.480;6.158;2022-08-21T10:56:47;25.20;99.90
52869;DHT22;39100;53.480;6.158;2022-08-21T10:59:31;25.10;99.90
52869;DHT22;39100;53.480;6.158;2022-08-21T11:02:13;25.40;99.90
52869;DHT22;39100;53.480;6.158;2022-08-21T11:04:52;25.40;99.90
52869;DHT22;39100;53.480;6.158;2022-08-21T11:10:08;25.30;99.90
52869;DHT22;39100;53.480;6.158;2022-08-21T11:12:41;25.30;99.90
52869;DHT22;39100;53.480;6.158;2022-08-21T11:17:54;25.30;99.90
52869;DHT22;39100;53.480;6.158;2022-08-21T11:20:32;25.40;99.90
52869;DHT22;39100;53.480;6.158;2022-08-21T11:23:05;25.30;99.90
52869;DHT22;39100;53.480;6.158;2022-08-21T11:25:37;25.20;99.90
52869;DHT22;39100;53.480;6.158;2022-08-21T11:28:22;25.40;99.90
52869;DHT22;39100;53.480;6.158;2022-08-21T11:37:25;25.90;99.90
52869;DHT22;39100;53.480;6.158;2022-08-21T11:39:57;26.10;99.90
52869;DHT22;39100;53.480;6.158;2022-08-21T11:42:41;26.30;99.90
52869;DHT22;39100;53.480;6.158;2022-08-21T11:48:32;26.80;99.90
52869;DHT22;39100;53.480;6.158;2022-08-21T11:51:06;27.00;99.90
52869;DHT22;39100;53.480;6.158;2022-08-21T11:53:38;27.20;99.90
52869;DHT22;39100;53.480;6.158;2022-08-21T11:56:17;27.40;99.90
52869;DHT22;39100;53.480;6.158;2022-08-21T11:58:49;27.50;99.90
52869;DHT22;39100;53.480;6.158;2022-08-21T12:01:22;27.60;99.90
52869;DHT22;39100;53.480;6.158;2022-08-21T12:04:00;27.80;99.90
52869;DHT22;39100;53.480;6.158;2022-08-21T12:06:34;27.80;99.90
52869;DHT22;39100;53.480;6.158;2022-08-21T12:09:28;28.30;99.90
52869;DHT22;39100;53.480;6.158;2022-08-21T12:14:40;29.10;99.90
52869;DHT22;39100;53.480;6.158;2022-08-21T12:17:08;28.70;99.90
52869;DHT22;39100;53.480;6.158;2022-08-21T12:19:35;29.00;99.90
52869;DHT22;39100;53.480;6.158;2022-08-21T12:22:13;29.50;99.90
52869;DHT22;39100;53.480;6.158;2022-08-21T12:24:45;29.70;99.90
52869;DHT22;39100;53.480;6.158;2022-08-21T12:27:26;30.00;99.90
52869;DHT22;39100;53.480;6.158;2022-08-21T12:29:56;30.00;99.90
52869;DHT22;39100;53.480;6.158;2022-08-21T12:32:25;30.10;99.90
52869;DHT22;39100;53.480;6.158;2022-08-21T12:35:07;30.30;99.90
52869;DHT22;39100;53.480;6.158;2022-08-21T12:37:40;30.70;99.90
52869;DHT22;39100;53.480;6.158;2022-08-21T12:40:21;31.00;99.90
52869;DHT22;39100;53.480;6.158;2022-08-21T12:42:52;31.20;99.90
52869;DHT22;39100;53.480;6.158;2022-08-21T12:45:31;31.60;99.90
52869;DHT22;39100;53.480;6.158;2022-08-21T12:48:26;31.70;99.90
52869;DHT22;39100;53.480;6.158;2022-08-21T12:51:06;32.00;99.90
52869;DHT22;39100;53.480;6.158;2022-08-21T12:53:50;32.30;99.90
52869;DHT22;39100;53.480;6.158;2022-08-21T12:56:18;32.60;99.90
52869;DHT22;39100;53.480;6.158;2022-08-21T12:58:56;33.00;99.90
52869;DHT22;39100;53.480;6.158;2022-08-21T13:01:28;33.30;99.90
52869;DHT22;39100;53.480;6.158;2022-08-21T13:03:58;33.40;99.90
52869;DHT22;39100;53.480;6.158;2022-08-21T13:06:29;33.30;99.90
52869;DHT22;39100;53.480;6.158;2022-08-21T13:09:05;33.50;99.90
52869;DHT22;39100;53.480;6.158;2022-08-21T13:11:32;33.60;99.90
52869;DHT22;39100;53.480;6.158;2022-08-21T13:13:58;33.40;99.90
52869;DHT22;39100;53.480;6.158;2022-08-21T13:16:28;33.30;99.90
52869;DHT22;39100;53.480;6.158;2022-08-21T13:19:01;32.90;99.90
52869;DHT22;39100;53.480;6.158;2022-08-21T13:21:33;32.80;99.90
52869;DHT22;39100;53.480;6.158;2022-08-21T13:26:47;32.00;99.90
52869;DHT22;39100;53.480;6.158;2022-08-21T13:29:16;31.50;99.90
52869;DHT22;39100;53.480;6.158;2022-08-21T13:31:48;31.10;99.90
52869;DHT22;39100;53.480;6.158;2022-08-21T13:34:14;30.90;99.90
52869;DHT22;39100;53.480;6.158;2022-08-21T13:36:42;30.50;99.90
52869;DHT22;39100;53.480;6.158;2022-08-21T13:39:11;29.90;99.90
52869;DHT22;39100;53.480;6.158;2022-08-21T13:41:40;29.80;99.90
52869;DHT22;39100;53.480;6.158;2022-08-21T13:44:20;29.20;99.90
52869;DHT22;39100;53.480;6.158;2022-08-21T13:46:48;29.10;99.90
52869;DHT22;39100;53.480;6.158;2022-08-21T13:49:18;28.90;99.90
52869;DHT22;39100;53.480;6.158;2022-08-21T13:51:44;28.80;99.90
52869;DHT22;39100;53.480;6.158;2022-08-21T13:54:21;28.60;99.90
52869;DHT22;39100;53.480;6.158;2022-08-21T13:56:47;28.50;99.90
52869;DHT22;39100;53.480;6.158;2022-08-21T13:59:24;28.30;99.90
52869;DHT22;39100;53.480;6.158;2022-08-21T14:02:01;28.30;99.90
52869;DHT22;39100;53.480;6.158;2022-08-21T14:04:38;28.00;99.90
52869;DHT22;39100;53.480;6.158;2022-08-21T14:07:22;28.00;99.90
52869;DHT22;39100;53.480;6.158;2022-08-21T14:09:49;27.90;99.90
52869;DHT22;39100;53.480;6.158;2022-08-21T14:12:32;27.70;99.90
52869;DHT22;39100;53.480;6.158;2022-08-21T14:15:03;27.50;99.90
52869;DHT22;39100;53.480;6.158;2022-08-21T14:17:36;27.30;99.90
52869;DHT22;39100;53.480;6.158;2022-08-21T14:20:04;27.40;99.90
52869;DHT22;39100;53.480;6.158;2022-08-21T14:22:46;27.30;99.90
52869;DHT22;39100;53.480;6.158;2022-08-21T14:25:15;27.30;99.90
52869;DHT22;39100;53.480;6.158;2022-08-21T14:28:34;27.20;99.90
52869;DHT22;39100;53.480;6.158;2022-08-21T14:30:42;27.30;99.90
52869;DHT22;39100;53.480;6.158;2022-08-21T14:33:19;27.30;99.90
52869;DHT22;39100;53.480;6.158;2022-08-21T14:35:45;27.10;99.90
52869;DHT22;39100;53.480;6.158;2022-08-21T14:38:20;26.90;99.90
52869;DHT22;39100;53.480;6.158;2022-08-21T14:40:49;26.90;99.90
52869;DHT22;39100;53.480;6.158;2022-08-21T14:43:15;27.00;99.90
52869;DHT22;39100;53.480;6.158;2022-08-21T14:45:41;26.80;99.90
52869;DHT22;39100;53.480;6.158;2022-08-21T14:48:09;26.60;99.90
52869;DHT22;39100;53.480;6.158;2022-08-21T14:50:34;26.50;99.90
52869;DHT22;39100;53.480;6.158;2022-08-21T14:53:00;26.40;99.90
52869;DHT22;39100;53.480;6.158;2022-08-21T14:55:26;26.20;99.90
52869;DHT22;39100;53.480;6.158;2022-08-21T14:57:53;26.20;99.90
52869;DHT22;39100;53.480;6.158;2022-08-21T15:00:23;26.20;99.90
52869;DHT22;39100;53.480;6.158;2022-08-21T15:02:50;26.10;99.90
52869;DHT22;39100;53.480;6.158;2022-08-21T15:05:17;25.90;99.90
52869;DHT22;39100;53.480;6.158;2022-08-21T15:07:42;26.00;99.90
52869;DHT22;39100;53.480;6.158;2022-08-21T15:10:11;26.00;99.90
52869;DHT22;39100;53.480;6.158;2022-08-21T15:12:36;25.90;99.90
52869;DHT22;39100;53.480;6.158;2022-08-21T15:15:05;26.00;99.90
52869;DHT22;39100;53.480;6.158;2022-08-21T15:17:31;25.90;99.90
52869;DHT22;39100;53.480;6.158;2022-08-21T15:19:56;25.90;99.90
52869;DHT22;39100;53.480;6.158;2022-08-21T15:22:22;25.70;99.90
52869;DHT22;39100;53.480;6.158;2022-08-21T15:24:47;25.80;99.90
52869;DHT22;39100;53.480;6.158;2022-08-21T15:27:13;25.60;99.90
52869;DHT22;39100;53.480;6.158;2022-08-21T15:29:41;25.50;99.90
52869;DHT22;39100;53.480;6.158;2022-08-21T15:32:25;25.30;99.90
52869;DHT22;39100;53.480;6.158;2022-08-21T15:34:53;25.00;99.90
52869;DHT22;39100;53.480;6.158;2022-08-21T15:37:20;24.70;99.90
52869;DHT22;39100;53.480;6.158;2022-08-21T15:39:46;24.70;99.90
52869;DHT22;39100;53.480;6.158;2022-08-21T15:42:12;24.70;99.90
52869;DHT22;39100;53.480;6.158;2022-08-21T15:44:41;24.60;99.90
52869;DHT22;39100;53.480;6.158;2022-08-21T15:47:13;24.60;99.90
52869;DHT22;39100;53.480;6.158;2022-08-21T15:49:40;24.50;99.90
52869;DHT22;39100;53.480;6.158;2022-08-21T15:52:10;24.40;99.90
52869;DHT22;39100;53.480;6.158;2022-08-21T15:54:36;24.40;99.90
52869;DHT22;39100;53.480;6.158;2022-08-21T15:57:02;24.30;99.90
52869;DHT22;39100;53.480;6.158;2022-08-21T15:59:30;24.20;99.90
52869;DHT22;39100;53.480;6.158;2022-08-21T16:01:57;24.10;99.90
52869;DHT22;39100;53.480;6.158;2022-08-21T16:04:27;23.90;99.90
52869;DHT22;39100;53.480;6.158;2022-08-21T16:06:53;23.70;99.90
52869;DHT22;39100;53.480;6.158;2022-08-21T16:09:19;23.70;99.90
52869;DHT22;39100;53.480;6.158;2022-08-21T16:11:45;23.40;99.90
52869;DHT22;39100;53.480;6.158;2022-08-21T16:14:13;23.30;99.90
52869;DHT22;39100;53.480;6.158;2022-08-21T16:16:39;23.10;99.90
52869;DHT22;39100;53.480;6.158;2022-08-21T16:19:05;22.90;99.90
52869;DHT22;39100;53.480;6.158;2022-08-21T16:21:32;22.90;99.90
52869;DHT22;39100;53.480;6.158;2022-08-21T16:23:58;22.70;99.90
52869;DHT22;39100;53.480;6.158;2022-08-21T16:26:23;22.70;99.90
52869;DHT22;39100;53.480;6.158;2022-08-21T16:28:51;22.60;99.90
52869;DHT22;39100;53.480;6.158;2022-08-21T16:31:17;22.60;99.90
52869;DHT22;39100;53.480;6.158;2022-08-21T16:33:48;22.50;99.90
52869;DHT22;39100;53.480;6.158;2022-08-21T16:36:14;22.50;99.90
52869;DHT22;39100;53.480;6.158;2022-08-21T16:38:40;22.40;99.90
52869;DHT22;39100;53.480;6.158;2022-08-21T16:41:12;22.30;99.90
52869;DHT22;39100;53.480;6.158;2022-08-21T16:43:40;22.30;99.90
52869;DHT22;39100;53.480;6.158;2022-08-21T16:46:08;22.20;99.90